N339PR SADF-SAAJ
Flight info
| Callsign | N339PR |
|---|---|
| Flight time | N/A |
| Altitude | 4500 |
| Route | NEPIS DCT NIN |
| Aircraft | PC12/L-SDFGRWY/LB1 |
Departure
| Time | 2026-04-22 17:05 |
|---|---|
| Airport | San Fernando Airport (SADF) |
Arrival
| Time | N/A |
|---|---|
| Airport | SAAJ |
| Time | Latitude | Longitude | Altitude | Speed | Heading |
|---|---|---|---|---|---|
| 2026-04-22 16:54 | -34.45085 | -58.58081 | 22 ft | 0 kts | 239° |
| 2026-04-22 17:01 | -34.45089 | -58.58089 | 22 ft | 5 kts | 239° |
| 2026-04-22 17:01 | -34.45104 | -58.58118 | 22 ft | 10 kts | 238° |
| 2026-04-22 17:01 | -34.45075 | -58.58152 | 22 ft | 13 kts | 330° |
| 2026-04-22 17:01 | -34.44979 | -58.58223 | 23 ft | 17 kts | 331° |
| 2026-04-22 17:02 | -34.44903 | -58.58277 | 22 ft | 0 kts | 324° |
| 2026-04-22 17:02 | -34.44894 | -58.58285 | 23 ft | 6 kts | 323° |
| 2026-04-22 17:03 | -34.44856 | -58.58326 | 24 ft | 5 kts | 315° |
| 2026-04-22 17:03 | -34.44848 | -58.58372 | 22 ft | 8 kts | 229° |
| 2026-04-22 17:03 | -34.44911 | -58.58449 | 22 ft | 26 kts | 225° |
| 2026-04-22 17:03 | -34.45181 | -58.58763 | 25 ft | 81 kts | 225° |
| 2026-04-22 17:04 | -34.45661 | -58.59353 | 145 ft | 113 kts | 229° |
| 2026-04-22 17:04 | -34.46124 | -58.59946 | 330 ft | 133 kts | 230° |
| 2026-04-22 17:04 | -34.46605 | -58.60605 | 350 ft | 155 kts | 232° |
| 2026-04-22 17:04 | -34.47339 | -58.61631 | 505 ft | 167 kts | 232° |
| 2026-04-22 17:05 | -34.48147 | -58.62767 | 658 ft | 180 kts | 232° |
| 2026-04-22 17:05 | -34.48995 | -58.63964 | 778 ft | 191 kts | 232° |
| 2026-04-22 17:05 | -34.49854 | -58.65208 | 897 ft | 195 kts | 233° |
| 2026-04-22 17:05 | -34.50372 | -58.66561 | 1051 ft | 197 kts | 260° |
| 2026-04-22 17:06 | -34.50637 | -58.68211 | 1180 ft | 202 kts | 262° |
| 2026-04-22 17:06 | -34.50911 | -58.69902 | 1299 ft | 201 kts | 262° |
| 2026-04-22 17:06 | -34.51174 | -58.71580 | 1436 ft | 202 kts | 262° |
| 2026-04-22 17:06 | -34.51437 | -58.73257 | 1489 ft | 205 kts | 263° |
| 2026-04-22 17:07 | -34.51702 | -58.74967 | 1498 ft | 208 kts | 263° |
| 2026-04-22 17:07 | -34.51967 | -58.76710 | 1491 ft | 210 kts | 262° |
| 2026-04-22 17:07 | -34.52255 | -58.78461 | 1493 ft | 212 kts | 259° |
| 2026-04-22 17:07 | -34.52586 | -58.80208 | 1484 ft | 212 kts | 259° |
| 2026-04-22 17:08 | -34.52895 | -58.81958 | 1509 ft | 213 kts | 260° |
| 2026-04-22 17:08 | -34.53197 | -58.83730 | 1493 ft | 215 kts | 260° |
| 2026-04-22 17:08 | -34.53496 | -58.85489 | 1492 ft | 213 kts | 261° |
| 2026-04-22 17:08 | -34.53811 | -58.87284 | 1505 ft | 213 kts | 262° |
| 2026-04-22 17:09 | -34.54097 | -58.89044 | 1495 ft | 213 kts | 261° |
| 2026-04-22 17:09 | -34.54395 | -58.90802 | 1495 ft | 212 kts | 261° |
| 2026-04-22 17:09 | -34.54596 | -58.91970 | 1491 ft | 213 kts | 261° |
| 2026-04-22 17:09 | -34.54997 | -58.94263 | 1812 ft | 202 kts | 259° |
| 2026-04-22 17:10 | -34.55073 | -58.95907 | 2102 ft | 193 kts | 284° |
| 2026-04-22 17:10 | -34.54433 | -58.97286 | 2402 ft | 186 kts | 305° |
| 2026-04-22 17:10 | -34.53702 | -58.98599 | 2695 ft | 186 kts | 302° |
| 2026-04-22 17:10 | -34.53060 | -58.99989 | 3005 ft | 185 kts | 292° |
| 2026-04-22 17:11 | -34.52640 | -59.01510 | 3322 ft | 191 kts | 285° |
| 2026-04-22 17:11 | -34.52314 | -59.03081 | 3606 ft | 190 kts | 284° |
| 2026-04-22 17:11 | -34.52001 | -59.04635 | 3895 ft | 188 kts | 282° |
| 2026-04-22 17:11 | -34.51957 | -59.06258 | 4004 ft | 201 kts | 266° |
| 2026-04-22 17:12 | -34.52105 | -59.07938 | 4005 ft | 203 kts | 265° |
| 2026-04-22 17:12 | -34.52202 | -59.09674 | 4013 ft | 209 kts | 270° |
| 2026-04-22 17:12 | -34.52216 | -59.11469 | 4004 ft | 215 kts | 271° |
| 2026-04-22 17:12 | -34.52241 | -59.13288 | 4007 ft | 215 kts | 269° |
| 2026-04-22 17:13 | -34.52306 | -59.15104 | 4014 ft | 216 kts | 269° |
| 2026-04-22 17:13 | -34.52336 | -59.16928 | 4002 ft | 216 kts | 270° |
| 2026-04-22 17:13 | -34.52368 | -59.18755 | 4009 ft | 218 kts | 269° |
| 2026-04-22 17:13 | -34.52407 | -59.20589 | 4014 ft | 218 kts | 269° |
| 2026-04-22 17:14 | -34.52444 | -59.22429 | 4014 ft | 218 kts | 270° |
| 2026-04-22 17:14 | -34.52460 | -59.24263 | 4008 ft | 217 kts | 270° |
| 2026-04-22 17:14 | -34.52503 | -59.26092 | 4013 ft | 218 kts | 269° |
| 2026-04-22 17:14 | -34.52557 | -59.27933 | 4008 ft | 217 kts | 269° |
| 2026-04-22 17:15 | -34.52581 | -59.29148 | 4013 ft | 217 kts | 270° |
| 2026-04-22 17:15 | -34.52602 | -59.31591 | 4011 ft | 217 kts | 269° |
| 2026-04-22 17:15 | -34.52650 | -59.33420 | 4007 ft | 216 kts | 269° |
| 2026-04-22 17:15 | -34.52576 | -59.34609 | 4012 ft | 214 kts | 283° |
| 2026-04-22 17:16 | -34.51840 | -59.36177 | 4017 ft | 215 kts | 306° |
| 2026-04-22 17:16 | -34.51267 | -59.37821 | 4009 ft | 214 kts | 276° |
| 2026-04-22 17:16 | -34.51502 | -59.39590 | 4008 ft | 214 kts | 255° |
| 2026-04-22 17:16 | -34.51854 | -59.41330 | 4014 ft | 211 kts | 263° |
| 2026-04-22 17:17 | -34.51930 | -59.43108 | 4017 ft | 211 kts | 271° |
| 2026-04-22 17:17 | -34.51928 | -59.44891 | 4019 ft | 212 kts | 270° |
| 2026-04-22 17:17 | -34.51969 | -59.46678 | 4023 ft | 212 kts | 269° |
| 2026-04-22 17:17 | -34.52019 | -59.48467 | 4021 ft | 212 kts | 269° |
| 2026-04-22 17:18 | -34.52063 | -59.50247 | 4089 ft | 209 kts | 269° |
| 2026-04-22 17:18 | -34.52103 | -59.51979 | 4283 ft | 203 kts | 269° |
| 2026-04-22 17:18 | -34.52145 | -59.53670 | 4476 ft | 199 kts | 269° |
| 2026-04-22 17:18 | -34.52184 | -59.55370 | 4516 ft | 205 kts | 269° |
| 2026-04-22 17:19 | -34.52255 | -59.58896 | 4514 ft | 213 kts | 269° |
| 2026-04-22 17:19 | -34.52339 | -59.62498 | 4522 ft | 212 kts | 270° |
| 2026-04-22 17:20 | -34.52424 | -59.66082 | 4522 ft | 213 kts | 269° |
| 2026-04-22 17:20 | -34.52502 | -59.69667 | 4522 ft | 212 kts | 269° |
| 2026-04-22 17:21 | -34.52540 | -59.71456 | 4526 ft | 213 kts | 269° |
| 2026-04-22 17:21 | -34.52616 | -59.75032 | 4524 ft | 212 kts | 268° |
| 2026-04-22 17:22 | -34.52692 | -59.78622 | 4527 ft | 210 kts | 269° |
| 2026-04-22 17:22 | -34.52729 | -59.80397 | 4518 ft | 211 kts | 269° |
| 2026-04-22 17:22 | -34.52805 | -59.83960 | 4520 ft | 211 kts | 269° |
| 2026-04-22 17:23 | -34.52842 | -59.85720 | 4527 ft | 211 kts | 269° |
| 2026-04-22 17:23 | -34.52913 | -59.89303 | 4518 ft | 211 kts | 269° |
| 2026-04-22 17:23 | -34.52950 | -59.91081 | 4527 ft | 211 kts | 268° |
| 2026-04-22 17:24 | -34.52987 | -59.92870 | 4519 ft | 212 kts | 268° |
| 2026-04-22 17:24 | -34.53022 | -59.94654 | 4609 ft | 209 kts | 269° |
| 2026-04-22 17:24 | -34.53056 | -59.96400 | 4620 ft | 211 kts | 268° |
| 2026-04-22 17:24 | -34.53092 | -59.98204 | 4622 ft | 211 kts | 269° |
| 2026-04-22 17:25 | -34.53126 | -59.99983 | 4629 ft | 211 kts | 269° |
| 2026-04-22 17:25 | -34.53158 | -60.01740 | 4626 ft | 211 kts | 268° |
| 2026-04-22 17:25 | -34.53191 | -60.03537 | 4630 ft | 210 kts | 268° |
| 2026-04-22 17:25 | -34.53229 | -60.05288 | 4634 ft | 210 kts | 268° |
| 2026-04-22 17:26 | -34.53264 | -60.07061 | 4631 ft | 210 kts | 269° |
| 2026-04-22 17:26 | -34.53297 | -60.08855 | 4630 ft | 210 kts | 268° |
| 2026-04-22 17:26 | -34.53330 | -60.10631 | 4634 ft | 210 kts | 269° |
| 2026-04-22 17:26 | -34.53360 | -60.12403 | 4628 ft | 210 kts | 268° |
| 2026-04-22 17:27 | -34.53396 | -60.14199 | 4629 ft | 210 kts | 269° |
| 2026-04-22 17:27 | -34.53423 | -60.15955 | 4630 ft | 208 kts | 268° |
| 2026-04-22 17:27 | -34.53458 | -60.17721 | 4627 ft | 210 kts | 268° |
| 2026-04-22 17:27 | -34.53490 | -60.19478 | 4630 ft | 208 kts | 269° |
| 2026-04-22 17:28 | -34.53521 | -60.21242 | 4623 ft | 209 kts | 268° |
| 2026-04-22 17:28 | -34.53555 | -60.23004 | 4629 ft | 208 kts | 268° |
| 2026-04-22 17:28 | -34.53581 | -60.24762 | 4638 ft | 210 kts | 268° |
| 2026-04-22 17:28 | -34.53614 | -60.26557 | 4636 ft | 209 kts | 268° |
| 2026-04-22 17:29 | -34.53646 | -60.28327 | 4638 ft | 211 kts | 268° |
| 2026-04-22 17:29 | -34.53677 | -60.30107 | 4634 ft | 209 kts | 268° |
| 2026-04-22 17:29 | -34.53702 | -60.31872 | 4641 ft | 210 kts | 268° |
| 2026-04-22 17:29 | -34.53733 | -60.33649 | 4634 ft | 211 kts | 268° |
| 2026-04-22 17:30 | -34.53765 | -60.35430 | 4637 ft | 210 kts | 268° |
| 2026-04-22 17:30 | -34.53794 | -60.37135 | 4637 ft | 211 kts | 268° |
| 2026-04-22 17:30 | -34.53822 | -60.39055 | 4636 ft | 211 kts | 268° |
| 2026-04-22 17:30 | -34.53853 | -60.40840 | 4633 ft | 212 kts | 268° |
| 2026-04-22 17:31 | -34.53880 | -60.42641 | 4641 ft | 209 kts | 268° |
| 2026-04-22 17:31 | -34.53907 | -60.44403 | 4632 ft | 208 kts | 268° |
| 2026-04-22 17:31 | -34.53929 | -60.46135 | 4637 ft | 204 kts | 268° |
| 2026-04-22 17:31 | -34.53962 | -60.47857 | 4635 ft | 205 kts | 267° |
| 2026-04-22 17:32 | -34.53995 | -60.49589 | 4631 ft | 205 kts | 268° |
| 2026-04-22 17:32 | -34.54018 | -60.51306 | 4643 ft | 204 kts | 268° |
| 2026-04-22 17:32 | -34.54042 | -60.53046 | 4545 ft | 209 kts | 268° |
| 2026-04-22 17:32 | -34.54069 | -60.54826 | 4389 ft | 213 kts | 268° |
| 2026-04-22 17:33 | -34.54083 | -60.56019 | 4290 ft | 214 kts | 268° |
| 2026-04-22 17:33 | -34.54117 | -60.58386 | 4055 ft | 207 kts | 268° |
| 2026-04-22 17:33 | -34.54139 | -60.60123 | 3880 ft | 203 kts | 266° |
| 2026-04-22 17:33 | -34.54175 | -60.61830 | 3709 ft | 202 kts | 266° |
| 2026-04-22 17:34 | -34.54194 | -60.63534 | 3536 ft | 202 kts | 267° |
| 2026-04-22 17:34 | -34.54209 | -60.65229 | 3354 ft | 200 kts | 265° |
| 2026-04-22 17:34 | -34.54247 | -60.66909 | 3179 ft | 199 kts | 266° |
| 2026-04-22 17:34 | -34.54270 | -60.68588 | 3003 ft | 198 kts | 266° |
| 2026-04-22 17:35 | -34.54279 | -60.69738 | 2883 ft | 198 kts | 267° |
| 2026-04-22 17:35 | -34.54300 | -60.71367 | 2709 ft | 194 kts | 266° |
| 2026-04-22 17:35 | -34.54331 | -60.73022 | 2513 ft | 191 kts | 266° |
| 2026-04-22 17:35 | -34.54348 | -60.74625 | 2335 ft | 189 kts | 267° |
| 2026-04-22 17:36 | -34.54374 | -60.76224 | 2159 ft | 188 kts | 266° |
| 2026-04-22 17:36 | -34.54396 | -60.77821 | 1972 ft | 187 kts | 267° |
| 2026-04-22 17:36 | -34.54414 | -60.79443 | 1801 ft | 191 kts | 267° |
| 2026-04-22 17:36 | -34.54433 | -60.81047 | 1621 ft | 188 kts | 268° |
| 2026-04-22 17:37 | -34.54448 | -60.82729 | 1432 ft | 185 kts | 267° |
| 2026-04-22 17:37 | -34.54465 | -60.84235 | 1237 ft | 169 kts | 267° |
| 2026-04-22 17:37 | -34.54483 | -60.85610 | 1194 ft | 157 kts | 266° |
| 2026-04-22 17:37 | -34.54509 | -60.86904 | 1196 ft | 151 kts | 267° |
| 2026-04-22 17:38 | -34.54531 | -60.88163 | 1184 ft | 148 kts | 267° |
| 2026-04-22 17:38 | -34.54548 | -60.89416 | 1188 ft | 146 kts | 266° |
| 2026-04-22 17:38 | -34.54591 | -60.90632 | 1244 ft | 141 kts | 258° |
| 2026-04-22 17:38 | -34.54982 | -60.91692 | 1232 ft | 137 kts | 238° |
| 2026-04-22 17:39 | -34.55485 | -60.92657 | 1147 ft | 131 kts | 236° |
| 2026-04-22 17:39 | -34.55787 | -60.93649 | 1199 ft | 128 kts | 269° |
| 2026-04-22 17:39 | -34.54421 | -60.95061 | 1086 ft | 134 kts | 334° |
| 2026-04-22 17:40 | -34.53554 | -60.95441 | 1029 ft | 131 kts | 349° |
| 2026-04-22 17:40 | -34.52720 | -60.94948 | 877 ft | 141 kts | 59° |
| 2026-04-22 17:40 | -34.52522 | -60.93878 | 838 ft | 115 kts | 102° |
| 2026-04-22 17:40 | -34.53026 | -60.93254 | 518 ft | 101 kts | 165° |
| 2026-04-22 17:41 | -34.53697 | -60.93152 | 308 ft | 96 kts | 178° |
| 2026-04-22 17:41 | -34.54288 | -60.93091 | 250 ft | 72 kts | 176° |
| 2026-04-22 17:41 | -34.54629 | -60.93053 | 253 ft | 31 kts | 173° |
| 2026-04-22 17:41 | -34.54816 | -60.93028 | 254 ft | 25 kts | 173° |
| 2026-04-22 17:42 | -34.54988 | -60.93005 | 256 ft | 23 kts | 176° |
| 2026-04-22 17:42 | -34.55124 | -60.93048 | 254 ft | 17 kts | 221° |
| 2026-04-22 17:42 | -34.55157 | -60.93096 | 253 ft | 10 kts | 227° |
| 2026-04-22 17:42 | -34.55164 | -60.93141 | 253 ft | 4 kts | 266° |
| 2026-04-22 17:43 | -34.55171 | -60.93146 | 253 ft | 2 kts | 166° |
| 2026-04-22 17:43 | -34.55174 | -60.93145 | 253 ft | 0 kts | 146° |